KLYH/LYH METAR and TAF weather

Enter ICAO airport designator
Station Type Date Time Source
KLYH METAR 2020/01/20 18:54 UTC NOAA

KLYH 201854Z VRB05KT 10SM CLR 03/M13 A3031 RMK AO2 SLP273 T00331128


Station Type Date Time Source
KLYH Decoded METAR 2020/01/20 18:54 UTC NOAA

LYNCHBURG REGIONAL AIRPORT, VA, United States (KLYH) 37-19N 079-12W 295M
Jan 20, 2020 - 01:54 PM EST / 2020.01.20 1854 UTC
Wind: Variable at 6 MPH (5 KT):0
Visibility: 10 mile(s):0
Sky conditions: clear
Temperature: 37.9 F (3.3 C)
Dew Point: 9.0 F (-12.8 C)
Relative Humidity: 29%
Pressure (altimeter): 30.31 in. Hg (1026 hPa)
ob: KLYH 201854Z VRB05KT 10SM CLR 03/M13 A3031 RMK AO2 SLP273 T00331128
cycle: 19

Station Type Date Time Source
KLYH TAF 2020/01/20 18:42 UTC NOAA

TAF KLYH 201740Z 2018/2118 02008KT P6SM SKC
FM211200 01005KT P6SM SCT250

Example: see airport list